sensor_id;sensor_type;location;lat;lon;timestamp;P1;durP1;ratioP1;P2;durP2;ratioP2
40847;SDS011;26570;50.962;5.340;2022-08-25T00:02:12;3.67;;;0.80;;
40847;SDS011;26570;50.962;5.340;2022-08-25T00:04:57;3.85;;;0.80;;
40847;SDS011;26570;50.962;5.340;2022-08-25T00:07:42;3.15;;;0.90;;
40847;SDS011;26570;50.962;5.340;2022-08-25T00:10:27;6.03;;;0.80;;
40847;SDS011;26570;50.962;5.340;2022-08-25T00:13:13;8.73;;;1.25;;
40847;SDS011;26570;50.962;5.340;2022-08-25T00:15:58;4.47;;;1.48;;
40847;SDS011;26570;50.962;5.340;2022-08-25T00:18:45;4.22;;;0.90;;
40847;SDS011;26570;50.962;5.340;2022-08-25T00:21:32;2.00;;;0.90;;
40847;SDS011;26570;50.962;5.340;2022-08-25T00:24:18;4.63;;;1.00;;
40847;SDS011;26570;50.962;5.340;2022-08-25T00:27:04;2.20;;;0.82;;
40847;SDS011;26570;50.962;5.340;2022-08-25T00:29:50;4.45;;;1.50;;
40847;SDS011;26570;50.962;5.340;2022-08-25T00:32:35;5.97;;;1.20;;
40847;SDS011;26570;50.962;5.340;2022-08-25T00:35:20;4.85;;;1.20;;
40847;SDS011;26570;50.962;5.340;2022-08-25T00:38:06;6.20;;;1.10;;
40847;SDS011;26570;50.962;5.340;2022-08-25T00:40:51;3.23;;;1.10;;
40847;SDS011;26570;50.962;5.340;2022-08-25T00:43:56;6.30;;;1.30;;
40847;SDS011;26570;50.962;5.340;2022-08-25T00:46:45;3.40;;;1.30;;
40847;SDS011;26570;50.962;5.340;2022-08-25T00:49:35;3.93;;;1.10;;
40847;SDS011;26570;50.962;5.340;2022-08-25T00:52:27;3.00;;;1.20;;
40847;SDS011;26570;50.962;5.340;2022-08-25T00:55:22;4.10;;;1.43;;
40847;SDS011;26570;50.962;5.340;2022-08-25T00:58:12;3.93;;;1.13;;
40847;SDS011;26570;50.962;5.340;2022-08-25T01:01:01;7.00;;;1.30;;
40847;SDS011;26570;50.962;5.340;2022-08-25T01:03:47;3.50;;;1.50;;
40847;SDS011;26570;50.962;5.340;2022-08-25T01:06:33;2.80;;;1.30;;
40847;SDS011;26570;50.962;5.340;2022-08-25T01:09:21;5.00;;;1.50;;
40847;SDS011;26570;50.962;5.340;2022-08-25T01:12:06;3.80;;;1.50;;
40847;SDS011;26570;50.962;5.340;2022-08-25T01:14:52;6.23;;;2.47;;
40847;SDS011;26570;50.962;5.340;2022-08-25T01:18:11;4.63;;;2.60;;
40847;SDS011;26570;50.962;5.340;2022-08-25T01:20:50;3.50;;;1.90;;
40847;SDS011;26570;50.962;5.340;2022-08-25T01:23:36;6.10;;;1.90;;
40847;SDS011;26570;50.962;5.340;2022-08-25T01:26:23;9.73;;;2.20;;
40847;SDS011;26570;50.962;5.340;2022-08-25T01:29:11;7.23;;;2.83;;
40847;SDS011;26570;50.962;5.340;2022-08-25T01:34:51;5.80;;;1.53;;
40847;SDS011;26570;50.962;5.340;2022-08-25T01:37:38;4.93;;;2.17;;
40847;SDS011;26570;50.962;5.340;2022-08-25T01:40:23;5.83;;;2.23;;
40847;SDS011;26570;50.962;5.340;2022-08-25T01:46:00;8.40;;;2.70;;
40847;SDS011;26570;50.962;5.340;2022-08-25T01:48:45;4.80;;;2.67;;
40847;SDS011;26570;50.962;5.340;2022-08-25T01:51:37;6.30;;;2.40;;
40847;SDS011;26570;50.962;5.340;2022-08-25T01:54:34;3.92;;;2.47;;
40847;SDS011;26570;50.962;5.340;2022-08-25T01:57:20;4.53;;;2.17;;
40847;SDS011;26570;50.962;5.340;2022-08-25T02:00:05;7.97;;;2.63;;
40847;SDS011;26570;50.962;5.340;2022-08-25T02:02:53;5.43;;;2.50;;
40847;SDS011;26570;50.962;5.340;2022-08-25T02:05:38;4.93;;;2.60;;
40847;SDS011;26570;50.962;5.340;2022-08-25T02:08:23;9.03;;;2.90;;
40847;SDS011;26570;50.962;5.340;2022-08-25T02:11:12;3.60;;;2.17;;
40847;SDS011;26570;50.962;5.340;2022-08-25T02:13:58;8.47;;;3.60;;
40847;SDS011;26570;50.962;5.340;2022-08-25T02:16:45;5.87;;;3.13;;
40847;SDS011;26570;50.962;5.340;2022-08-25T02:19:32;6.37;;;3.23;;
40847;SDS011;26570;50.962;5.340;2022-08-25T02:22:17;8.17;;;2.67;;
40847;SDS011;26570;50.962;5.340;2022-08-25T02:25:02;6.60;;;2.90;;
40847;SDS011;26570;50.962;5.340;2022-08-25T02:27:47;9.47;;;2.67;;
40847;SDS011;26570;50.962;5.340;2022-08-25T02:30:32;3.97;;;2.17;;
40847;SDS011;26570;50.962;5.340;2022-08-25T02:33:17;4.53;;;3.23;;
40847;SDS011;26570;50.962;5.340;2022-08-25T02:36:03;5.53;;;3.50;;
40847;SDS011;26570;50.962;5.340;2022-08-25T02:38:49;3.63;;;2.87;;
40847;SDS011;26570;50.962;5.340;2022-08-25T02:41:34;6.27;;;2.60;;
40847;SDS011;26570;50.962;5.340;2022-08-25T02:44:19;8.03;;;2.60;;
40847;SDS011;26570;50.962;5.340;2022-08-25T02:47:04;7.27;;;2.77;;
40847;SDS011;26570;50.962;5.340;2022-08-25T02:49:49;12.40;;;3.07;;
40847;SDS011;26570;50.962;5.340;2022-08-25T02:52:34;6.07;;;2.80;;
40847;SDS011;26570;50.962;5.340;2022-08-25T02:55:20;5.87;;;3.60;;
40847;SDS011;26570;50.962;5.340;2022-08-25T02:58:05;6.20;;;3.67;;
40847;SDS011;26570;50.962;5.340;2022-08-25T03:00:52;5.57;;;3.17;;
40847;SDS011;26570;50.962;5.340;2022-08-25T03:03:37;5.43;;;3.00;;
40847;SDS011;26570;50.962;5.340;2022-08-25T03:06:27;12.30;;;4.43;;
40847;SDS011;26570;50.962;5.340;2022-08-25T03:09:12;4.87;;;2.73;;
40847;SDS011;26570;50.962;5.340;2022-08-25T03:11:57;25.00;;;4.17;;
40847;SDS011;26570;50.962;5.340;2022-08-25T03:14:43;25.67;;;3.97;;
40847;SDS011;26570;50.962;5.340;2022-08-25T03:17:27;20.30;;;3.83;;
40847;SDS011;26570;50.962;5.340;2022-08-25T03:20:13;22.07;;;3.60;;
40847;SDS011;26570;50.962;5.340;2022-08-25T03:22:58;24.67;;;4.17;;
40847;SDS011;26570;50.962;5.340;2022-08-25T03:25:43;30.40;;;4.97;;
40847;SDS011;26570;50.962;5.340;2022-08-25T03:28:46;19.10;;;4.72;;
40847;SDS011;26570;50.962;5.340;2022-08-25T03:31:36;22.57;;;4.27;;
40847;SDS011;26570;50.962;5.340;2022-08-25T03:34:22;6.50;;;3.17;;
40847;SDS011;26570;50.962;5.340;2022-08-25T03:37:06;4.90;;;3.07;;
40847;SDS011;26570;50.962;5.340;2022-08-25T03:39:53;9.37;;;3.17;;
40847;SDS011;26570;50.962;5.340;2022-08-25T03:42:42;10.43;;;3.30;;
40847;SDS011;26570;50.962;5.340;2022-08-25T03:45:28;5.80;;;3.13;;
40847;SDS011;26570;50.962;5.340;2022-08-25T03:48:13;7.47;;;3.60;;
40847;SDS011;26570;50.962;5.340;2022-08-25T03:50:59;6.30;;;3.40;;
40847;SDS011;26570;50.962;5.340;2022-08-25T03:53:43;7.07;;;2.87;;
40847;SDS011;26570;50.962;5.340;2022-08-25T03:56:28;8.27;;;3.27;;
40847;SDS011;26570;50.962;5.340;2022-08-25T03:59:13;4.70;;;2.97;;
40847;SDS011;26570;50.962;5.340;2022-08-25T04:01:59;5.33;;;3.43;;
40847;SDS011;26570;50.962;5.340;2022-08-25T04:04:44;6.60;;;4.63;;
40847;SDS011;26570;50.962;5.340;2022-08-25T04:07:30;7.07;;;3.23;;
40847;SDS011;26570;50.962;5.340;2022-08-25T04:10:15;10.07;;;3.90;;
40847;SDS011;26570;50.962;5.340;2022-08-25T04:13:00;8.97;;;3.93;;
40847;SDS011;26570;50.962;5.340;2022-08-25T04:15:45;12.43;;;4.10;;
40847;SDS011;26570;50.962;5.340;2022-08-25T04:18:30;11.30;;;4.50;;
40847;SDS011;26570;50.962;5.340;2022-08-25T04:21:17;4.70;;;4.10;;
40847;SDS011;26570;50.962;5.340;2022-08-25T04:24:04;6.07;;;5.03;;
40847;SDS011;26570;50.962;5.340;2022-08-25T04:26:51;11.47;;;4.93;;
40847;SDS011;26570;50.962;5.340;2022-08-25T04:29:36;7.47;;;4.83;;
40847;SDS011;26570;50.962;5.340;2022-08-25T04:32:21;8.03;;;4.83;;
40847;SDS011;26570;50.962;5.340;2022-08-25T04:35:06;10.83;;;4.80;;
40847;SDS011;26570;50.962;5.340;2022-08-25T04:37:52;7.73;;;4.63;;
40847;SDS011;26570;50.962;5.340;2022-08-25T04:40:37;9.77;;;5.67;;
40847;SDS011;26570;50.962;5.340;2022-08-25T04:43:21;9.93;;;5.43;;
40847;SDS011;26570;50.962;5.340;2022-08-25T04:46:08;8.37;;;4.73;;
40847;SDS011;26570;50.962;5.340;2022-08-25T04:49:03;9.93;;;5.40;;
40847;SDS011;26570;50.962;5.340;2022-08-25T04:51:49;8.47;;;4.80;;
40847;SDS011;26570;50.962;5.340;2022-08-25T04:54:34;9.43;;;4.77;;
40847;SDS011;26570;50.962;5.340;2022-08-25T04:57:18;10.63;;;5.13;;
40847;SDS011;26570;50.962;5.340;2022-08-25T05:00:03;10.97;;;4.70;;
40847;SDS011;26570;50.962;5.340;2022-08-25T05:02:49;7.03;;;4.40;;
40847;SDS011;26570;50.962;5.340;2022-08-25T05:05:35;9.87;;;3.83;;
40847;SDS011;26570;50.962;5.340;2022-08-25T05:08:21;9.43;;;4.23;;
40847;SDS011;26570;50.962;5.340;2022-08-25T05:11:06;3.83;;;3.33;;
40847;SDS011;26570;50.962;5.340;2022-08-25T05:13:53;9.73;;;3.57;;
40847;SDS011;26570;50.962;5.340;2022-08-25T05:16:40;15.70;;;5.27;;
40847;SDS011;26570;50.962;5.340;2022-08-25T05:19:25;8.30;;;4.43;;
40847;SDS011;26570;50.962;5.340;2022-08-25T05:22:10;8.67;;;4.57;;
40847;SDS011;26570;50.962;5.340;2022-08-25T05:24:55;12.83;;;5.23;;
40847;SDS011;26570;50.962;5.340;2022-08-25T05:27:41;10.03;;;4.67;;
40847;SDS011;26570;50.962;5.340;2022-08-25T05:30:28;8.17;;;4.13;;
40847;SDS011;26570;50.962;5.340;2022-08-25T05:33:13;7.30;;;3.63;;
40847;SDS011;26570;50.962;5.340;2022-08-25T05:35:59;13.73;;;3.73;;
40847;SDS011;26570;50.962;5.340;2022-08-25T05:38:45;11.87;;;3.23;;
40847;SDS011;26570;50.962;5.340;2022-08-25T05:41:30;22.67;;;3.87;;
40847;SDS011;26570;50.962;5.340;2022-08-25T05:44:15;16.30;;;3.07;;
40847;SDS011;26570;50.962;5.340;2022-08-25T05:47:00;17.00;;;3.23;;
40847;SDS011;26570;50.962;5.340;2022-08-25T05:49:42;13.77;;;3.33;;
40847;SDS011;26570;50.962;5.340;2022-08-25T05:52:27;16.67;;;2.90;;
40847;SDS011;26570;50.962;5.340;2022-08-25T05:55:12;10.60;;;3.07;;
40847;SDS011;26570;50.962;5.340;2022-08-25T05:57:58;13.50;;;2.80;;
40847;SDS011;26570;50.962;5.340;2022-08-25T06:00:43;8.93;;;2.23;;
40847;SDS011;26570;50.962;5.340;2022-08-25T06:03:28;14.60;;;2.17;;
40847;SDS011;26570;50.962;5.340;2022-08-25T06:06:13;14.67;;;3.03;;
40847;SDS011;26570;50.962;5.340;2022-08-25T06:08:58;10.33;;;1.60;;
40847;SDS011;26570;50.962;5.340;2022-08-25T06:11:48;15.60;;;2.00;;
40847;SDS011;26570;50.962;5.340;2022-08-25T06:14:33;8.47;;;1.30;;
40847;SDS011;26570;50.962;5.340;2022-08-25T06:17:18;7.63;;;1.53;;
40847;SDS011;26570;50.962;5.340;2022-08-25T06:20:03;8.90;;;1.35;;
40847;SDS011;26570;50.962;5.340;2022-08-25T06:22:49;12.80;;;2.38;;
40847;SDS011;26570;50.962;5.340;2022-08-25T06:25:33;5.72;;;1.10;;
40847;SDS011;26570;50.962;5.340;2022-08-25T06:28:18;10.82;;;1.10;;
40847;SDS011;26570;50.962;5.340;2022-08-25T06:31:03;9.07;;;1.30;;
40847;SDS011;26570;50.962;5.340;2022-08-25T06:33:49;13.88;;;1.30;;
40847;SDS011;26570;50.962;5.340;2022-08-25T06:36:34;8.82;;;1.42;;
40847;SDS011;26570;50.962;5.340;2022-08-25T06:39:19;12.73;;;1.30;;
40847;SDS011;26570;50.962;5.340;2022-08-25T06:42:04;7.85;;;1.13;;
40847;SDS011;26570;50.962;5.340;2022-08-25T06:44:50;8.13;;;0.88;;
40847;SDS011;26570;50.962;5.340;2022-08-25T06:47:35;14.50;;;1.30;;
40847;SDS011;26570;50.962;5.340;2022-08-25T06:50:20;7.30;;;1.00;;
40847;SDS011;26570;50.962;5.340;2022-08-25T06:53:05;8.05;;;0.70;;
40847;SDS011;26570;50.962;5.340;2022-08-25T06:55:56;4.75;;;0.75;;
40847;SDS011;26570;50.962;5.340;2022-08-25T06:58:41;9.05;;;0.80;;
40847;SDS011;26570;50.962;5.340;2022-08-25T07:01:26;9.48;;;0.88;;
40847;SDS011;26570;50.962;5.340;2022-08-25T07:04:12;8.73;;;0.95;;
40847;SDS011;26570;50.962;5.340;2022-08-25T07:06:56;7.05;;;0.70;;
40847;SDS011;26570;50.962;5.340;2022-08-25T07:09:41;8.07;;;0.68;;
40847;SDS011;26570;50.962;5.340;2022-08-25T07:12:26;5.55;;;0.55;;
40847;SDS011;26570;50.962;5.340;2022-08-25T07:15:12;6.68;;;0.60;;
40847;SDS011;26570;50.962;5.340;2022-08-25T07:17:57;11.10;;;1.02;;
40847;SDS011;26570;50.962;5.340;2022-08-25T07:20:41;9.02;;;0.60;;
40847;SDS011;26570;50.962;5.340;2022-08-25T07:23:26;3.95;;;0.60;;
40847;SDS011;26570;50.962;5.340;2022-08-25T07:26:19;4.40;;;0.68;;
40847;SDS011;26570;50.962;5.340;2022-08-25T07:29:10;13.02;;;0.70;;
40847;SDS011;26570;50.962;5.340;2022-08-25T07:31:57;7.35;;;0.50;;
40847;SDS011;26570;50.962;5.340;2022-08-25T07:34:42;4.15;;;0.50;;
40847;SDS011;26570;50.962;5.340;2022-08-25T07:37:48;6.28;;;0.50;;
40847;SDS011;26570;50.962;5.340;2022-08-25T07:40:36;4.72;;;0.50;;
40847;SDS011;26570;50.962;5.340;2022-08-25T07:43:21;9.57;;;0.60;;
40847;SDS011;26570;50.962;5.340;2022-08-25T07:46:05;4.57;;;0.47;;
40847;SDS011;26570;50.962;5.340;2022-08-25T07:48:50;10.02;;;0.60;;
40847;SDS011;26570;50.962;5.340;2022-08-25T07:51:35;3.60;;;0.40;;
40847;SDS011;26570;50.962;5.340;2022-08-25T07:54:20;5.53;;;0.50;;
40847;SDS011;26570;50.962;5.340;2022-08-25T07:57:05;4.20;;;0.50;;
40847;SDS011;26570;50.962;5.340;2022-08-25T07:59:55;4.25;;;0.70;;
40847;SDS011;26570;50.962;5.340;2022-08-25T08:02:43;5.22;;;0.52;;
40847;SDS011;26570;50.962;5.340;2022-08-25T08:05:28;5.43;;;0.40;;
40847;SDS011;26570;50.962;5.340;2022-08-25T08:08:13;2.03;;;0.40;;
40847;SDS011;26570;50.962;5.340;2022-08-25T08:11:00;5.22;;;0.40;;
40847;SDS011;26570;50.962;5.340;2022-08-25T08:13:45;3.90;;;0.40;;
40847;SDS011;26570;50.962;5.340;2022-08-25T08:16:31;1.23;;;0.40;;
40847;SDS011;26570;50.962;5.340;2022-08-25T08:19:16;2.13;;;0.40;;
40847;SDS011;26570;50.962;5.340;2022-08-25T08:22:01;8.90;;;0.60;;
40847;SDS011;26570;50.962;5.340;2022-08-25T08:24:47;1.80;;;0.43;;
40847;SDS011;26570;50.962;5.340;2022-08-25T08:27:32;1.67;;;0.45;;
40847;SDS011;26570;50.962;5.340;2022-08-25T08:30:18;3.67;;;0.50;;
40847;SDS011;26570;50.962;5.340;2022-08-25T08:33:04;3.22;;;0.40;;
40847;SDS011;26570;50.962;5.340;2022-08-25T08:35:59;6.80;;;0.50;;
40847;SDS011;26570;50.962;5.340;2022-08-25T08:38:46;3.90;;;0.50;;
40847;SDS011;26570;50.962;5.340;2022-08-25T08:47:57;3.08;;;0.50;;
40847;SDS011;26570;50.962;5.340;2022-08-25T08:51:06;5.60;;;0.50;;
40847;SDS011;26570;50.962;5.340;2022-08-25T08:54:17;6.65;;;0.50;;
40847;SDS011;26570;50.962;5.340;2022-08-25T08:57:10;3.08;;;0.45;;
40847;SDS011;26570;50.962;5.340;2022-08-25T09:00:00;15.77;;;0.95;;
40847;SDS011;26570;50.962;5.340;2022-08-25T09:02:57;9.02;;;0.60;;
40847;SDS011;26570;50.962;5.340;2022-08-25T09:05:49;8.73;;;0.50;;
40847;SDS011;26570;50.962;5.340;2022-08-25T09:08:38;4.88;;;0.40;;
40847;SDS011;26570;50.962;5.340;2022-08-25T09:26:53;5.38;;;0.50;;
40847;SDS011;26570;50.962;5.340;2022-08-25T09:32:47;11.90;;;0.60;;
40847;SDS011;26570;50.962;5.340;2022-08-25T09:35:38;6.05;;;0.47;;
40847;SDS011;26570;50.962;5.340;2022-08-25T09:38:25;10.27;;;0.80;;
40847;SDS011;26570;50.962;5.340;2022-08-25T09:41:13;4.72;;;0.50;;
40847;SDS011;26570;50.962;5.340;2022-08-25T09:44:00;6.70;;;0.40;;
40847;SDS011;26570;50.962;5.340;2022-08-25T09:46:57;2.95;;;0.60;;
40847;SDS011;26570;50.962;5.340;2022-08-25T09:49:48;6.05;;;0.40;;
40847;SDS011;26570;50.962;5.340;2022-08-25T09:52:40;4.10;;;0.40;;
40847;SDS011;26570;50.962;5.340;2022-08-25T09:55:26;3.25;;;0.40;;
40847;SDS011;26570;50.962;5.340;2022-08-25T09:58:16;7.05;;;0.47;;
40847;SDS011;26570;50.962;5.340;2022-08-25T10:01:06;1.92;;;0.40;;
40847;SDS011;26570;50.962;5.340;2022-08-25T10:06:48;2.72;;;0.30;;
40847;SDS011;26570;50.962;5.340;2022-08-25T10:09:36;2.85;;;0.30;;
40847;SDS011;26570;50.962;5.340;2022-08-25T10:12:40;7.28;;;0.40;;
40847;SDS011;26570;50.962;5.340;2022-08-25T10:15:29;1.33;;;0.25;;
40847;SDS011;26570;50.962;5.340;2022-08-25T10:18:24;7.70;;;0.40;;
40847;SDS011;26570;50.962;5.340;2022-08-25T10:21:12;6.00;;;0.52;;
40847;SDS011;26570;50.962;5.340;2022-08-25T10:23:58;3.47;;;0.40;;
40847;SDS011;26570;50.962;5.340;2022-08-25T10:38:51;3.78;;;0.40;;
40847;SDS011;26570;50.962;5.340;2022-08-25T10:50:58;1.25;;;0.30;;
40847;SDS011;26570;50.962;5.340;2022-08-25T10:53:53;4.35;;;0.40;;
40847;SDS011;26570;50.962;5.340;2022-08-25T10:56:50;5.82;;;0.50;;
40847;SDS011;26570;50.962;5.340;2022-08-25T11:00:10;1.58;;;0.40;;
40847;SDS011;26570;50.962;5.340;2022-08-25T11:05:58;4.60;;;0.30;;
40847;SDS011;26570;50.962;5.340;2022-08-25T11:08:52;2.75;;;0.30;;
40847;SDS011;26570;50.962;5.340;2022-08-25T11:11:44;1.83;;;0.40;;
40847;SDS011;26570;50.962;5.340;2022-08-25T11:14:36;3.20;;;0.40;;
40847;SDS011;26570;50.962;5.340;2022-08-25T11:17:35;2.13;;;0.30;;
40847;SDS011;26570;50.962;5.340;2022-08-25T11:20:53;3.22;;;0.40;;
40847;SDS011;26570;50.962;5.340;2022-08-25T11:23:57;1.17;;;0.30;;
40847;SDS011;26570;50.962;5.340;2022-08-25T11:26:52;3.97;;;0.30;;
40847;SDS011;26570;50.962;5.340;2022-08-25T11:29:39;3.72;;;0.30;;
40847;SDS011;26570;50.962;5.340;2022-08-25T11:32:27;1.35;;;0.30;;
40847;SDS011;26570;50.962;5.340;2022-08-25T11:35:17;3.10;;;0.30;;
40847;SDS011;26570;50.962;5.340;2022-08-25T11:41:44;3.50;;;0.30;;
40847;SDS011;26570;50.962;5.340;2022-08-25T11:51:01;7.53;;;0.30;;
40847;SDS011;26570;50.962;5.340;2022-08-25T11:53:50;3.35;;;0.30;;
40847;SDS011;26570;50.962;5.340;2022-08-25T11:57:04;2.13;;;0.40;;
40847;SDS011;26570;50.962;5.340;2022-08-25T12:02:46;3.20;;;0.30;;
40847;SDS011;26570;50.962;5.340;2022-08-25T12:11:55;1.73;;;0.30;;
40847;SDS011;26570;50.962;5.340;2022-08-25T12:14:42;2.92;;;0.38;;
40847;SDS011;26570;50.962;5.340;2022-08-25T12:17:35;2.25;;;0.30;;
40847;SDS011;26570;50.962;5.340;2022-08-25T12:20:31;1.88;;;0.30;;
40847;SDS011;26570;50.962;5.340;2022-08-25T12:23:39;4.45;;;0.30;;
40847;SDS011;26570;50.962;5.340;2022-08-25T12:36:16;6.45;;;0.40;;
40847;SDS011;26570;50.962;5.340;2022-08-25T12:39:16;2.25;;;0.40;;
40847;SDS011;26570;50.962;5.340;2022-08-25T12:42:04;1.20;;;0.40;;
40847;SDS011;26570;50.962;5.340;2022-08-25T12:45:06;1.20;;;0.35;;
40847;SDS011;26570;50.962;5.340;2022-08-25T12:48:53;6.15;;;0.60;;
40847;SDS011;26570;50.962;5.340;2022-08-25T12:51:18;1.05;;;0.30;;
40847;SDS011;26570;50.962;5.340;2022-08-25T12:54:16;0.70;;;0.30;;
40847;SDS011;26570;50.962;5.340;2022-08-25T13:00:19;1.23;;;0.30;;
40847;SDS011;26570;50.962;5.340;2022-08-25T13:03:25;3.03;;;0.30;;
40847;SDS011;26570;50.962;5.340;2022-08-25T13:06:35;11.27;;;0.63;;
40847;SDS011;26570;50.962;5.340;2022-08-25T13:12:33;1.95;;;0.40;;
40847;SDS011;26570;50.962;5.340;2022-08-25T13:18:24;3.05;;;0.40;;
40847;SDS011;26570;50.962;5.340;2022-08-25T13:24:23;4.97;;;0.30;;
40847;SDS011;26570;50.962;5.340;2022-08-25T13:27:23;2.13;;;0.30;;
40847;SDS011;26570;50.962;5.340;2022-08-25T13:30:20;1.52;;;0.30;;
40847;SDS011;26570;50.962;5.340;2022-08-25T13:33:17;3.95;;;0.40;;
40847;SDS011;26570;50.962;5.340;2022-08-25T13:36:04;1.77;;;0.40;;
40847;SDS011;26570;50.962;5.340;2022-08-25T13:39:12;2.63;;;0.40;;
40847;SDS011;26570;50.962;5.340;2022-08-25T13:41:58;1.42;;;0.30;;
40847;SDS011;26570;50.962;5.340;2022-08-25T13:44:44;1.08;;;0.38;;
40847;SDS011;26570;50.962;5.340;2022-08-25T13:47:33;3.50;;;0.30;;
40847;SDS011;26570;50.962;5.340;2022-08-25T13:50:21;4.68;;;0.43;;
40847;SDS011;26570;50.962;5.340;2022-08-25T13:53:23;3.25;;;0.32;;
40847;SDS011;26570;50.962;5.340;2022-08-25T13:56:09;2.80;;;0.38;;
40847;SDS011;26570;50.962;5.340;2022-08-25T13:58:55;2.85;;;0.40;;
40847;SDS011;26570;50.962;5.340;2022-08-25T14:01:42;2.38;;;0.30;;
40847;SDS011;26570;50.962;5.340;2022-08-25T14:04:31;0.90;;;0.40;;
40847;SDS011;26570;50.962;5.340;2022-08-25T14:07:27;1.30;;;0.40;;
40847;SDS011;26570;50.962;5.340;2022-08-25T14:16:14;2.63;;;0.40;;
40847;SDS011;26570;50.962;5.340;2022-08-25T14:19:07;2.65;;;0.52;;
40847;SDS011;26570;50.962;5.340;2022-08-25T14:21:58;2.60;;;0.40;;
40847;SDS011;26570;50.962;5.340;2022-08-25T14:24:44;1.67;;;0.38;;
40847;SDS011;26570;50.962;5.340;2022-08-25T14:27:29;4.55;;;0.40;;
40847;SDS011;26570;50.962;5.340;2022-08-25T14:30:14;1.70;;;0.35;;
40847;SDS011;26570;50.962;5.340;2022-08-25T14:32:59;3.53;;;0.40;;
40847;SDS011;26570;50.962;5.340;2022-08-25T14:35:46;4.38;;;0.40;;
40847;SDS011;26570;50.962;5.340;2022-08-25T14:38:32;3.13;;;0.38;;
40847;SDS011;26570;50.962;5.340;2022-08-25T14:41:18;2.45;;;0.30;;
40847;SDS011;26570;50.962;5.340;2022-08-25T14:44:03;3.05;;;0.40;;
40847;SDS011;26570;50.962;5.340;2022-08-25T14:46:49;2.10;;;0.40;;
40847;SDS011;26570;50.962;5.340;2022-08-25T14:49:37;1.58;;;0.30;;
40847;SDS011;26570;50.962;5.340;2022-08-25T14:52:26;3.10;;;0.40;;
40847;SDS011;26570;50.962;5.340;2022-08-25T14:55:12;2.05;;;0.40;;
40847;SDS011;26570;50.962;5.340;2022-08-25T14:57:57;3.63;;;0.30;;
40847;SDS011;26570;50.962;5.340;2022-08-25T15:00:43;1.85;;;0.30;;
40847;SDS011;26570;50.962;5.340;2022-08-25T15:03:34;4.43;;;0.40;;
40847;SDS011;26570;50.962;5.340;2022-08-25T15:06:21;5.17;;;0.40;;
40847;SDS011;26570;50.962;5.340;2022-08-25T15:09:06;3.47;;;0.40;;
40847;SDS011;26570;50.962;5.340;2022-08-25T15:11:56;4.20;;;0.40;;
40847;SDS011;26570;50.962;5.340;2022-08-25T15:14:41;2.83;;;0.40;;
40847;SDS011;26570;50.962;5.340;2022-08-25T15:17:27;1.48;;;0.40;;
40847;SDS011;26570;50.962;5.340;2022-08-25T15:20:12;2.75;;;0.40;;
40847;SDS011;26570;50.962;5.340;2022-08-25T15:22:57;1.38;;;0.30;;
40847;SDS011;26570;50.962;5.340;2022-08-25T15:25:42;2.10;;;0.40;;
40847;SDS011;26570;50.962;5.340;2022-08-25T15:28:30;4.03;;;0.40;;
40847;SDS011;26570;50.962;5.340;2022-08-25T15:31:15;2.47;;;0.40;;
40847;SDS011;26570;50.962;5.340;2022-08-25T15:34:01;1.58;;;0.30;;
40847;SDS011;26570;50.962;5.340;2022-08-25T15:36:45;3.10;;;0.40;;
40847;SDS011;26570;50.962;5.340;2022-08-25T15:39:30;3.05;;;0.40;;
40847;SDS011;26570;50.962;5.340;2022-08-25T15:42:15;1.42;;;0.40;;
40847;SDS011;26570;50.962;5.340;2022-08-25T15:45:00;1.27;;;0.40;;
40847;SDS011;26570;50.962;5.340;2022-08-25T15:47:45;3.85;;;0.40;;
40847;SDS011;26570;50.962;5.340;2022-08-25T15:50:29;2.13;;;0.35;;
40847;SDS011;26570;50.962;5.340;2022-08-25T15:53:14;3.15;;;0.30;;
40847;SDS011;26570;50.962;5.340;2022-08-25T15:55:59;2.75;;;0.32;;
40847;SDS011;26570;50.962;5.340;2022-08-25T15:58:44;1.58;;;0.30;;
40847;SDS011;26570;50.962;5.340;2022-08-25T16:01:32;3.10;;;0.40;;
40847;SDS011;26570;50.962;5.340;2022-08-25T16:04:17;3.95;;;0.30;;
40847;SDS011;26570;50.962;5.340;2022-08-25T16:07:03;2.85;;;0.40;;
40847;SDS011;26570;50.962;5.340;2022-08-25T16:09:48;5.90;;;0.35;;
40847;SDS011;26570;50.962;5.340;2022-08-25T16:12:33;3.70;;;0.40;;
40847;SDS011;26570;50.962;5.340;2022-08-25T16:15:17;3.40;;;0.40;;
40847;SDS011;26570;50.962;5.340;2022-08-25T16:18:03;1.55;;;0.40;;
40847;SDS011;26570;50.962;5.340;2022-08-25T16:20:48;4.90;;;0.40;;
40847;SDS011;26570;50.962;5.340;2022-08-25T16:23:33;1.02;;;0.43;;
40847;SDS011;26570;50.962;5.340;2022-08-25T16:26:18;3.28;;;0.60;;
40847;SDS011;26570;50.962;5.340;2022-08-25T16:29:03;1.42;;;0.30;;
40847;SDS011;26570;50.962;5.340;2022-08-25T16:31:49;3.15;;;0.40;;
40847;SDS011;26570;50.962;5.340;2022-08-25T16:34:33;2.15;;;0.40;;
40847;SDS011;26570;50.962;5.340;2022-08-25T16:37:18;5.75;;;0.47;;
40847;SDS011;26570;50.962;5.340;2022-08-25T16:40:04;3.92;;;0.47;;
40847;SDS011;26570;50.962;5.340;2022-08-25T16:42:49;1.60;;;0.60;;
40847;SDS011;26570;50.962;5.340;2022-08-25T16:45:34;5.13;;;0.40;;
40847;SDS011;26570;50.962;5.340;2022-08-25T16:48:19;0.98;;;0.32;;
40847;SDS011;26570;50.962;5.340;2022-08-25T16:51:06;1.85;;;0.40;;
40847;SDS011;26570;50.962;5.340;2022-08-25T16:53:53;6.20;;;0.40;;
40847;SDS011;26570;50.962;5.340;2022-08-25T16:56:57;1.67;;;0.30;;
40847;SDS011;26570;50.962;5.340;2022-08-25T16:59:41;1.30;;;0.40;;
40847;SDS011;26570;50.962;5.340;2022-08-25T17:02:26;7.28;;;0.40;;
40847;SDS011;26570;50.962;5.340;2022-08-25T17:05:11;2.95;;;0.30;;
40847;SDS011;26570;50.962;5.340;2022-08-25T17:07:59;6.18;;;0.40;;
40847;SDS011;26570;50.962;5.340;2022-08-25T17:11:07;3.25;;;0.43;;
40847;SDS011;26570;50.962;5.340;2022-08-25T17:13:55;3.22;;;0.40;;
40847;SDS011;26570;50.962;5.340;2022-08-25T17:16:41;5.38;;;0.47;;
40847;SDS011;26570;50.962;5.340;2022-08-25T17:19:26;2.45;;;0.45;;
40847;SDS011;26570;50.962;5.340;2022-08-25T17:22:11;6.88;;;0.47;;
40847;SDS011;26570;50.962;5.340;2022-08-25T17:24:59;2.20;;;0.60;;
40847;SDS011;26570;50.962;5.340;2022-08-25T17:27:43;3.65;;;0.65;;
40847;SDS011;26570;50.962;5.340;2022-08-25T17:30:28;2.35;;;0.40;;
40847;SDS011;26570;50.962;5.340;2022-08-25T17:33:13;2.65;;;0.50;;
40847;SDS011;26570;50.962;5.340;2022-08-25T17:35:58;6.30;;;0.47;;
40847;SDS011;26570;50.962;5.340;2022-08-25T17:38:44;2.72;;;0.40;;
40847;SDS011;26570;50.962;5.340;2022-08-25T17:41:30;5.32;;;0.40;;
40847;SDS011;26570;50.962;5.340;2022-08-25T17:44:15;3.40;;;0.60;;
40847;SDS011;26570;50.962;5.340;2022-08-25T17:47:00;2.63;;;0.50;;
40847;SDS011;26570;50.962;5.340;2022-08-25T17:49:46;8.68;;;0.68;;
40847;SDS011;26570;50.962;5.340;2022-08-25T17:52:30;33.63;;;1.35;;
40847;SDS011;26570;50.962;5.340;2022-08-25T17:55:15;6.13;;;0.50;;
40847;SDS011;26570;50.962;5.340;2022-08-25T17:58:05;3.92;;;0.50;;
40847;SDS011;26570;50.962;5.340;2022-08-25T18:00:50;4.82;;;0.43;;
40847;SDS011;26570;50.962;5.340;2022-08-25T18:03:34;5.90;;;0.40;;
40847;SDS011;26570;50.962;5.340;2022-08-25T18:06:19;3.40;;;0.47;;
40847;SDS011;26570;50.962;5.340;2022-08-25T18:09:04;5.55;;;0.50;;
40847;SDS011;26570;50.962;5.340;2022-08-25T18:11:49;1.90;;;0.50;;
40847;SDS011;26570;50.962;5.340;2022-08-25T18:14:35;2.78;;;0.60;;
40847;SDS011;26570;50.962;5.340;2022-08-25T18:17:20;7.13;;;0.60;;
40847;SDS011;26570;50.962;5.340;2022-08-25T18:20:05;4.20;;;0.73;;
40847;SDS011;26570;50.962;5.340;2022-08-25T18:22:53;4.32;;;0.60;;
40847;SDS011;26570;50.962;5.340;2022-08-25T18:25:40;6.57;;;0.70;;
40847;SDS011;26570;50.962;5.340;2022-08-25T18:28:26;5.13;;;0.70;;
40847;SDS011;26570;50.962;5.340;2022-08-25T18:31:11;7.60;;;0.60;;
40847;SDS011;26570;50.962;5.340;2022-08-25T18:33:56;5.03;;;0.90;;
40847;SDS011;26570;50.962;5.340;2022-08-25T18:36:40;4.35;;;0.95;;